sensor_id;sensor_type;location;lat;lon;timestamp;P1;durP1;ratioP1;P2;durP2;ratioP2
71462;SDS011;59266;52.608;13.260;2023-02-23T00:02:05;36.38;;;9.35;;
71462;SDS011;59266;52.608;13.260;2023-02-23T00:04:33;37.85;;;9.80;;
71462;SDS011;59266;52.608;13.260;2023-02-23T00:07:00;29.15;;;9.38;;
71462;SDS011;59266;52.608;13.260;2023-02-23T00:09:27;23.45;;;8.40;;
71462;SDS011;59266;52.608;13.260;2023-02-23T00:12:01;30.98;;;9.75;;
71462;SDS011;59266;52.608;13.260;2023-02-23T00:14:34;29.63;;;9.35;;
71462;SDS011;59266;52.608;13.260;2023-02-23T00:17:03;27.73;;;9.55;;
71462;SDS011;59266;52.608;13.260;2023-02-23T00:19:36;37.08;;;10.23;;
71462;SDS011;59266;52.608;13.260;2023-02-23T00:22:05;26.73;;;9.73;;
71462;SDS011;59266;52.608;13.260;2023-02-23T00:24:32;36.10;;;9.65;;
71462;SDS011;59266;52.608;13.260;2023-02-23T00:27:01;31.40;;;10.05;;
71462;SDS011;59266;52.608;13.260;2023-02-23T00:29:31;31.63;;;9.35;;
71462;SDS011;59266;52.608;13.260;2023-02-23T00:32:06;34.33;;;9.85;;
71462;SDS011;59266;52.608;13.260;2023-02-23T00:34:33;31.02;;;9.10;;
71462;SDS011;59266;52.608;13.260;2023-02-23T00:37:00;25.77;;;9.75;;
71462;SDS011;59266;52.608;13.260;2023-02-23T00:39:27;31.10;;;10.35;;
71462;SDS011;59266;52.608;13.260;2023-02-23T00:41:57;30.73;;;9.25;;
71462;SDS011;59266;52.608;13.260;2023-02-23T00:44:29;31.45;;;10.23;;
71462;SDS011;59266;52.608;13.260;2023-02-23T00:46:57;36.10;;;10.40;;
71462;SDS011;59266;52.608;13.260;2023-02-23T00:49:24;26.50;;;9.68;;
71462;SDS011;59266;52.608;13.260;2023-02-23T00:51:51;31.38;;;10.25;;
71462;SDS011;59266;52.608;13.260;2023-02-23T00:54:19;30.33;;;10.45;;
71462;SDS011;59266;52.608;13.260;2023-02-23T00:56:47;31.88;;;11.07;;
71462;SDS011;59266;52.608;13.260;2023-02-23T00:59:16;33.90;;;10.77;;
71462;SDS011;59266;52.608;13.260;2023-02-23T01:01:43;32.70;;;9.70;;
71462;SDS011;59266;52.608;13.260;2023-02-23T01:04:11;26.17;;;9.80;;
71462;SDS011;59266;52.608;13.260;2023-02-23T01:06:38;31.48;;;9.68;;
71462;SDS011;59266;52.608;13.260;2023-02-23T01:09:07;33.30;;;10.50;;
71462;SDS011;59266;52.608;13.260;2023-02-23T01:11:36;34.03;;;10.75;;
71462;SDS011;59266;52.608;13.260;2023-02-23T01:14:03;26.17;;;10.27;;
71462;SDS011;59266;52.608;13.260;2023-02-23T01:16:31;28.05;;;10.45;;
71462;SDS011;59266;52.608;13.260;2023-02-23T01:19:00;30.05;;;9.48;;
71462;SDS011;59266;52.608;13.260;2023-02-23T01:21:31;37.15;;;11.48;;
71462;SDS011;59266;52.608;13.260;2023-02-23T01:23:59;30.27;;;10.55;;
71462;SDS011;59266;52.608;13.260;2023-02-23T01:26:28;38.90;;;11.88;;
71462;SDS011;59266;52.608;13.260;2023-02-23T01:29:00;36.53;;;11.50;;
71462;SDS011;59266;52.608;13.260;2023-02-23T01:31:30;31.48;;;10.52;;
71462;SDS011;59266;52.608;13.260;2023-02-23T01:33:59;34.35;;;10.68;;
71462;SDS011;59266;52.608;13.260;2023-02-23T01:36:31;31.00;;;10.52;;
71462;SDS011;59266;52.608;13.260;2023-02-23T01:39:03;31.65;;;10.85;;
71462;SDS011;59266;52.608;13.260;2023-02-23T01:41:35;33.53;;;11.25;;
71462;SDS011;59266;52.608;13.260;2023-02-23T01:46:48;35.30;;;11.57;;
71462;SDS011;59266;52.608;13.260;2023-02-23T01:49:17;39.50;;;11.25;;
71462;SDS011;59266;52.608;13.260;2023-02-23T01:51:48;37.25;;;11.70;;
71462;SDS011;59266;52.608;13.260;2023-02-23T01:54:18;34.63;;;12.10;;
71462;SDS011;59266;52.608;13.260;2023-02-23T01:56:50;29.90;;;10.93;;
71462;SDS011;59266;52.608;13.260;2023-02-23T01:59:30;31.92;;;10.95;;
71462;SDS011;59266;52.608;13.260;2023-02-23T02:02:02;29.85;;;10.80;;
71462;SDS011;59266;52.608;13.260;2023-02-23T02:04:33;28.98;;;10.93;;
71462;SDS011;59266;52.608;13.260;2023-02-23T02:07:12;32.85;;;11.25;;
71462;SDS011;59266;52.608;13.260;2023-02-23T02:09:41;37.35;;;11.25;;
71462;SDS011;59266;52.608;13.260;2023-02-23T02:12:29;30.17;;;10.77;;
71462;SDS011;59266;52.608;13.260;2023-02-23T02:14:57;36.65;;;12.00;;
71462;SDS011;59266;52.608;13.260;2023-02-23T02:20:45;30.92;;;11.15;;
71462;SDS011;59266;52.608;13.260;2023-02-23T02:26:09;33.67;;;10.55;;
71462;SDS011;59266;52.608;13.260;2023-02-23T02:31:27;37.17;;;11.20;;
71462;SDS011;59266;52.608;13.260;2023-02-23T02:39:47;33.20;;;11.43;;
71462;SDS011;59266;52.608;13.260;2023-02-23T02:42:55;41.53;;;11.85;;
71462;SDS011;59266;52.608;13.260;2023-02-23T02:45:42;35.58;;;11.98;;
71462;SDS011;59266;52.608;13.260;2023-02-23T02:51:04;40.08;;;11.45;;
71462;SDS011;59266;52.608;13.260;2023-02-23T02:56:11;33.60;;;11.57;;
71462;SDS011;59266;52.608;13.260;2023-02-23T02:58:45;34.75;;;12.07;;
71462;SDS011;59266;52.608;13.260;2023-02-23T03:01:16;39.45;;;11.93;;
71462;SDS011;59266;52.608;13.260;2023-02-23T03:04:21;34.70;;;10.38;;
71462;SDS011;59266;52.608;13.260;2023-02-23T03:07:28;35.67;;;11.93;;
71462;SDS011;59266;52.608;13.260;2023-02-23T03:13:33;32.65;;;10.40;;
71462;SDS011;59266;52.608;13.260;2023-02-23T03:16:25;40.38;;;10.95;;
71462;SDS011;59266;52.608;13.260;2023-02-23T03:19:20;33.85;;;11.93;;
71462;SDS011;59266;52.608;13.260;2023-02-23T03:25:25;30.67;;;10.43;;
71462;SDS011;59266;52.608;13.260;2023-02-23T03:28:21;31.90;;;11.27;;
71462;SDS011;59266;52.608;13.260;2023-02-23T03:31:30;34.25;;;11.27;;
71462;SDS011;59266;52.608;13.260;2023-02-23T03:34:29;32.67;;;11.40;;
71462;SDS011;59266;52.608;13.260;2023-02-23T03:37:27;37.28;;;12.30;;
71462;SDS011;59266;52.608;13.260;2023-02-23T03:40:34;27.35;;;10.73;;
71462;SDS011;59266;52.608;13.260;2023-02-23T03:43:28;36.95;;;11.40;;
71462;SDS011;59266;52.608;13.260;2023-02-23T03:46:17;32.08;;;11.50;;
71462;SDS011;59266;52.608;13.260;2023-02-23T03:49:05;45.42;;;11.93;;
71462;SDS011;59266;52.608;13.260;2023-02-23T03:51:57;38.20;;;11.32;;
71462;SDS011;59266;52.608;13.260;2023-02-23T03:54:47;35.42;;;10.77;;
71462;SDS011;59266;52.608;13.260;2023-02-23T03:57:38;38.50;;;12.00;;
71462;SDS011;59266;52.608;13.260;2023-02-23T04:00:29;30.08;;;10.63;;
71462;SDS011;59266;52.608;13.260;2023-02-23T04:03:18;35.25;;;12.07;;
71462;SDS011;59266;52.608;13.260;2023-02-23T04:06:06;36.40;;;11.90;;
71462;SDS011;59266;52.608;13.260;2023-02-23T04:08:56;37.88;;;11.77;;
71462;SDS011;59266;52.608;13.260;2023-02-23T04:11:46;38.65;;;11.65;;
71462;SDS011;59266;52.608;13.260;2023-02-23T04:14:59;33.13;;;11.63;;
71462;SDS011;59266;52.608;13.260;2023-02-23T04:19:55;30.23;;;11.38;;
71462;SDS011;59266;52.608;13.260;2023-02-23T04:22:22;37.13;;;12.77;;
71462;SDS011;59266;52.608;13.260;2023-02-23T04:24:53;36.17;;;11.50;;
71462;SDS011;59266;52.608;13.260;2023-02-23T04:27:20;45.45;;;12.50;;
71462;SDS011;59266;52.608;13.260;2023-02-23T04:29:47;41.08;;;13.10;;
71462;SDS011;59266;52.608;13.260;2023-02-23T04:32:15;37.60;;;11.65;;
71462;SDS011;59266;52.608;13.260;2023-02-23T04:34:43;40.15;;;13.75;;
71462;SDS011;59266;52.608;13.260;2023-02-23T04:37:10;37.80;;;12.80;;
71462;SDS011;59266;52.608;13.260;2023-02-23T04:39:38;34.30;;;12.38;;
71462;SDS011;59266;52.608;13.260;2023-02-23T04:42:05;33.85;;;11.63;;
71462;SDS011;59266;52.608;13.260;2023-02-23T04:44:31;36.05;;;12.63;;
71462;SDS011;59266;52.608;13.260;2023-02-23T04:46:58;38.78;;;13.15;;
71462;SDS011;59266;52.608;13.260;2023-02-23T04:49:24;39.42;;;12.63;;
71462;SDS011;59266;52.608;13.260;2023-02-23T04:51:51;40.72;;;13.23;;
71462;SDS011;59266;52.608;13.260;2023-02-23T04:54:18;35.85;;;12.93;;
71462;SDS011;59266;52.608;13.260;2023-02-23T04:56:47;36.42;;;12.68;;
71462;SDS011;59266;52.608;13.260;2023-02-23T04:59:13;42.42;;;12.88;;
71462;SDS011;59266;52.608;13.260;2023-02-23T05:01:40;35.42;;;11.60;;
71462;SDS011;59266;52.608;13.260;2023-02-23T05:04:09;32.95;;;11.63;;
71462;SDS011;59266;52.608;13.260;2023-02-23T05:06:38;40.53;;;11.93;;
71462;SDS011;59266;52.608;13.260;2023-02-23T05:09:05;37.00;;;11.98;;
71462;SDS011;59266;52.608;13.260;2023-02-23T05:11:32;32.10;;;12.35;;
71462;SDS011;59266;52.608;13.260;2023-02-23T05:13:59;38.20;;;12.88;;
71462;SDS011;59266;52.608;13.260;2023-02-23T05:16:25;39.00;;;13.10;;
71462;SDS011;59266;52.608;13.260;2023-02-23T05:18:52;46.10;;;12.82;;
71462;SDS011;59266;52.608;13.260;2023-02-23T05:21:19;37.90;;;12.07;;
71462;SDS011;59266;52.608;13.260;2023-02-23T05:23:47;35.20;;;12.65;;
71462;SDS011;59266;52.608;13.260;2023-02-23T05:26:14;41.53;;;12.70;;
71462;SDS011;59266;52.608;13.260;2023-02-23T05:28:41;37.60;;;12.43;;
71462;SDS011;59266;52.608;13.260;2023-02-23T05:31:08;36.17;;;12.18;;
71462;SDS011;59266;52.608;13.260;2023-02-23T05:33:37;42.58;;;13.00;;
71462;SDS011;59266;52.608;13.260;2023-02-23T05:36:10;33.88;;;11.20;;
71462;SDS011;59266;52.608;13.260;2023-02-23T05:38:39;40.88;;;12.80;;
71462;SDS011;59266;52.608;13.260;2023-02-23T05:41:11;40.65;;;11.63;;
71462;SDS011;59266;52.608;13.260;2023-02-23T05:43:39;40.95;;;12.55;;
71462;SDS011;59266;52.608;13.260;2023-02-23T05:46:07;37.75;;;12.57;;
71462;SDS011;59266;52.608;13.260;2023-02-23T05:48:41;36.88;;;10.95;;
71462;SDS011;59266;52.608;13.260;2023-02-23T05:51:10;36.88;;;13.32;;
71462;SDS011;59266;52.608;13.260;2023-02-23T05:53:39;39.47;;;13.05;;
71462;SDS011;59266;52.608;13.260;2023-02-23T05:56:06;42.67;;;12.75;;
71462;SDS011;59266;52.608;13.260;2023-02-23T05:58:36;42.13;;;13.43;;
71462;SDS011;59266;52.608;13.260;2023-02-23T06:01:03;35.85;;;12.77;;
71462;SDS011;59266;52.608;13.260;2023-02-23T06:03:30;38.15;;;13.18;;
71462;SDS011;59266;52.608;13.260;2023-02-23T06:05:57;41.97;;;13.23;;
71462;SDS011;59266;52.608;13.260;2023-02-23T06:08:24;36.58;;;11.32;;
71462;SDS011;59266;52.608;13.260;2023-02-23T06:10:51;36.15;;;12.65;;
71462;SDS011;59266;52.608;13.260;2023-02-23T06:13:18;34.03;;;11.07;;
71462;SDS011;59266;52.608;13.260;2023-02-23T06:15:47;35.97;;;12.02;;
71462;SDS011;59266;52.608;13.260;2023-02-23T06:18:14;37.42;;;11.70;;
71462;SDS011;59266;52.608;13.260;2023-02-23T06:20:43;32.95;;;11.52;;
71462;SDS011;59266;52.608;13.260;2023-02-23T06:23:11;41.10;;;13.25;;
71462;SDS011;59266;52.608;13.260;2023-02-23T06:25:38;36.67;;;13.43;;
71462;SDS011;59266;52.608;13.260;2023-02-23T06:28:06;36.85;;;12.13;;
71462;SDS011;59266;52.608;13.260;2023-02-23T06:30:34;34.97;;;12.10;;
71462;SDS011;59266;52.608;13.260;2023-02-23T06:33:02;33.60;;;11.20;;
71462;SDS011;59266;52.608;13.260;2023-02-23T06:35:31;34.40;;;12.10;;
71462;SDS011;59266;52.608;13.260;2023-02-23T06:37:59;35.67;;;12.32;;
71462;SDS011;59266;52.608;13.260;2023-02-23T06:40:26;40.92;;;12.07;;
71462;SDS011;59266;52.608;13.260;2023-02-23T06:42:53;35.85;;;12.15;;
71462;SDS011;59266;52.608;13.260;2023-02-23T06:45:20;35.17;;;12.07;;
71462;SDS011;59266;52.608;13.260;2023-02-23T06:47:47;39.55;;;12.45;;
71462;SDS011;59266;52.608;13.260;2023-02-23T06:50:14;31.83;;;11.15;;
71462;SDS011;59266;52.608;13.260;2023-02-23T06:52:42;34.40;;;11.90;;
71462;SDS011;59266;52.608;13.260;2023-02-23T06:55:09;42.05;;;11.45;;
71462;SDS011;59266;52.608;13.260;2023-02-23T06:57:35;33.72;;;12.43;;
71462;SDS011;59266;52.608;13.260;2023-02-23T07:00:02;29.23;;;11.25;;
71462;SDS011;59266;52.608;13.260;2023-02-23T07:02:29;33.17;;;11.93;;
71462;SDS011;59266;52.608;13.260;2023-02-23T07:04:58;39.50;;;12.02;;
71462;SDS011;59266;52.608;13.260;2023-02-23T07:07:28;37.15;;;11.05;;
71462;SDS011;59266;52.608;13.260;2023-02-23T07:09:55;42.35;;;12.77;;
71462;SDS011;59266;52.608;13.260;2023-02-23T07:12:26;38.50;;;11.98;;
71462;SDS011;59266;52.608;13.260;2023-02-23T07:14:57;39.28;;;11.48;;
71462;SDS011;59266;52.608;13.260;2023-02-23T07:17:24;33.53;;;13.05;;
71462;SDS011;59266;52.608;13.260;2023-02-23T07:19:51;38.95;;;12.35;;
71462;SDS011;59266;52.608;13.260;2023-02-23T07:22:43;43.03;;;12.70;;
71462;SDS011;59266;52.608;13.260;2023-02-23T07:25:10;38.53;;;12.80;;
71462;SDS011;59266;52.608;13.260;2023-02-23T07:27:39;35.35;;;11.80;;
71462;SDS011;59266;52.608;13.260;2023-02-23T07:30:07;34.90;;;13.38;;
71462;SDS011;59266;52.608;13.260;2023-02-23T07:32:34;41.03;;;12.95;;
71462;SDS011;59266;52.608;13.260;2023-02-23T07:35:02;37.85;;;13.57;;
71462;SDS011;59266;52.608;13.260;2023-02-23T07:37:30;33.50;;;13.50;;
71462;SDS011;59266;52.608;13.260;2023-02-23T07:40:00;34.15;;;11.75;;
71462;SDS011;59266;52.608;13.260;2023-02-23T07:42:27;47.47;;;14.38;;
71462;SDS011;59266;52.608;13.260;2023-02-23T07:44:54;38.80;;;13.63;;
71462;SDS011;59266;52.608;13.260;2023-02-23T07:47:21;42.58;;;14.02;;
71462;SDS011;59266;52.608;13.260;2023-02-23T07:49:56;35.30;;;12.75;;
71462;SDS011;59266;52.608;13.260;2023-02-23T07:52:23;38.55;;;12.73;;
71462;SDS011;59266;52.608;13.260;2023-02-23T07:54:50;38.47;;;12.70;;
71462;SDS011;59266;52.608;13.260;2023-02-23T07:57:19;35.42;;;13.10;;
71462;SDS011;59266;52.608;13.260;2023-02-23T07:59:49;41.70;;;13.00;;
71462;SDS011;59266;52.608;13.260;2023-02-23T08:02:16;33.85;;;12.70;;
71462;SDS011;59266;52.608;13.260;2023-02-23T08:04:43;40.55;;;13.38;;
71462;SDS011;59266;52.608;13.260;2023-02-23T08:07:10;35.10;;;12.43;;
71462;SDS011;59266;52.608;13.260;2023-02-23T08:09:37;35.00;;;13.27;;
71462;SDS011;59266;52.608;13.260;2023-02-23T08:12:04;32.22;;;14.05;;
71462;SDS011;59266;52.608;13.260;2023-02-23T08:14:31;38.55;;;13.60;;
71462;SDS011;59266;52.608;13.260;2023-02-23T08:16:58;32.17;;;12.23;;
71462;SDS011;59266;52.608;13.260;2023-02-23T08:19:35;37.22;;;12.65;;
71462;SDS011;59266;52.608;13.260;2023-02-23T08:22:04;29.83;;;12.77;;
71462;SDS011;59266;52.608;13.260;2023-02-23T08:24:37;35.13;;;12.70;;
71462;SDS011;59266;52.608;13.260;2023-02-23T08:27:10;28.95;;;11.40;;
71462;SDS011;59266;52.608;13.260;2023-02-23T08:29:38;34.97;;;13.00;;
71462;SDS011;59266;52.608;13.260;2023-02-23T08:32:09;30.85;;;12.65;;
71462;SDS011;59266;52.608;13.260;2023-02-23T08:34:42;33.65;;;12.90;;
71462;SDS011;59266;52.608;13.260;2023-02-23T08:37:16;31.65;;;12.13;;
71462;SDS011;59266;52.608;13.260;2023-02-23T08:39:42;34.00;;;11.95;;
71462;SDS011;59266;52.608;13.260;2023-02-23T08:42:09;32.88;;;12.07;;
71462;SDS011;59266;52.608;13.260;2023-02-23T08:44:36;33.35;;;11.85;;
71462;SDS011;59266;52.608;13.260;2023-02-23T08:47:11;32.13;;;11.95;;
71462;SDS011;59266;52.608;13.260;2023-02-23T08:50:05;27.13;;;12.18;;
71462;SDS011;59266;52.608;13.260;2023-02-23T08:52:43;29.85;;;11.73;;
71462;SDS011;59266;52.608;13.260;2023-02-23T08:58:13;28.63;;;11.90;;
71462;SDS011;59266;52.608;13.260;2023-02-23T09:01:06;37.17;;;13.63;;
71462;SDS011;59266;52.608;13.260;2023-02-23T09:03:54;29.40;;;11.68;;
71462;SDS011;59266;52.608;13.260;2023-02-23T09:06:22;34.45;;;12.00;;
71462;SDS011;59266;52.608;13.260;2023-02-23T09:09:38;30.17;;;11.30;;
71462;SDS011;59266;52.608;13.260;2023-02-23T09:12:17;30.67;;;12.23;;
71462;SDS011;59266;52.608;13.260;2023-02-23T09:14:50;30.73;;;12.25;;
71462;SDS011;59266;52.608;13.260;2023-02-23T09:17:20;34.95;;;12.20;;
71462;SDS011;59266;52.608;13.260;2023-02-23T09:20:16;32.55;;;12.43;;
71462;SDS011;59266;52.608;13.260;2023-02-23T09:22:48;32.78;;;13.13;;
71462;SDS011;59266;52.608;13.260;2023-02-23T09:25:15;36.40;;;12.40;;
71462;SDS011;59266;52.608;13.260;2023-02-23T09:27:49;30.02;;;12.38;;
71462;SDS011;59266;52.608;13.260;2023-02-23T09:30:51;31.38;;;11.82;;
71462;SDS011;59266;52.608;13.260;2023-02-23T09:33:25;32.78;;;11.57;;
71462;SDS011;59266;52.608;13.260;2023-02-23T09:35:54;36.53;;;12.45;;
71462;SDS011;59266;52.608;13.260;2023-02-23T09:38:28;34.03;;;12.75;;
71462;SDS011;59266;52.608;13.260;2023-02-23T09:41:02;34.38;;;12.15;;
71462;SDS011;59266;52.608;13.260;2023-02-23T09:43:55;31.13;;;12.63;;
71462;SDS011;59266;52.608;13.260;2023-02-23T09:46:40;32.25;;;12.98;;
71462;SDS011;59266;52.608;13.260;2023-02-23T09:49:16;29.40;;;12.75;;
71462;SDS011;59266;52.608;13.260;2023-02-23T09:51:47;30.38;;;11.63;;
71462;SDS011;59266;52.608;13.260;2023-02-23T09:54:19;28.13;;;12.55;;
71462;SDS011;59266;52.608;13.260;2023-02-23T09:56:48;28.90;;;12.05;;
71462;SDS011;59266;52.608;13.260;2023-02-23T09:59:17;31.63;;;12.15;;
71462;SDS011;59266;52.608;13.260;2023-02-23T10:12:47;29.35;;;12.05;;
71462;SDS011;59266;52.608;13.260;2023-02-23T10:15:36;29.02;;;13.73;;
71462;SDS011;59266;52.608;13.260;2023-02-23T10:18:23;31.33;;;12.57;;
71462;SDS011;59266;52.608;13.260;2023-02-23T10:24:11;29.38;;;12.85;;
71462;SDS011;59266;52.608;13.260;2023-02-23T10:26:39;27.27;;;12.13;;
71462;SDS011;59266;52.608;13.260;2023-02-23T10:29:30;30.88;;;12.68;;
71462;SDS011;59266;52.608;13.260;2023-02-23T10:32:04;25.45;;;11.82;;
71462;SDS011;59266;52.608;13.260;2023-02-23T10:34:52;31.02;;;11.88;;
71462;SDS011;59266;52.608;13.260;2023-02-23T10:37:22;34.30;;;13.15;;
71462;SDS011;59266;52.608;13.260;2023-02-23T10:39:51;31.38;;;12.50;;
71462;SDS011;59266;52.608;13.260;2023-02-23T10:42:22;36.42;;;13.38;;
71462;SDS011;59266;52.608;13.260;2023-02-23T10:44:55;29.08;;;12.00;;
71462;SDS011;59266;52.608;13.260;2023-02-23T10:47:30;27.98;;;12.55;;
71462;SDS011;59266;52.608;13.260;2023-02-23T10:50:01;33.53;;;12.02;;
71462;SDS011;59266;52.608;13.260;2023-02-23T10:52:32;30.50;;;12.82;;
71462;SDS011;59266;52.608;13.260;2023-02-23T10:55:07;26.50;;;12.40;;
71462;SDS011;59266;52.608;13.260;2023-02-23T10:57:49;26.77;;;12.27;;
71462;SDS011;59266;52.608;13.260;2023-02-23T11:00:29;26.17;;;11.73;;
71462;SDS011;59266;52.608;13.260;2023-02-23T11:10:58;30.05;;;13.18;;
71462;SDS011;59266;52.608;13.260;2023-02-23T11:13:48;26.95;;;12.30;;
71462;SDS011;59266;52.608;13.260;2023-02-23T11:16:20;29.60;;;12.38;;
71462;SDS011;59266;52.608;13.260;2023-02-23T11:18:53;27.23;;;12.25;;
71462;SDS011;59266;52.608;13.260;2023-02-23T11:21:28;23.90;;;11.77;;
71462;SDS011;59266;52.608;13.260;2023-02-23T11:24:12;29.00;;;13.05;;
71462;SDS011;59266;52.608;13.260;2023-02-23T11:26:46;26.88;;;12.70;;
71462;SDS011;59266;52.608;13.260;2023-02-23T11:31:59;25.83;;;12.50;;
71462;SDS011;59266;52.608;13.260;2023-02-23T11:34:35;26.20;;;12.27;;
71462;SDS011;59266;52.608;13.260;2023-02-23T11:37:21;29.40;;;12.18;;
71462;SDS011;59266;52.608;13.260;2023-02-23T11:42:27;28.38;;;12.50;;
71462;SDS011;59266;52.608;13.260;2023-02-23T11:45:06;25.10;;;12.38;;
71462;SDS011;59266;52.608;13.260;2023-02-23T11:47:52;23.13;;;12.00;;
71462;SDS011;59266;52.608;13.260;2023-02-23T11:50:31;26.42;;;12.55;;
71462;SDS011;59266;52.608;13.260;2023-02-23T11:53:17;32.33;;;12.60;;
71462;SDS011;59266;52.608;13.260;2023-02-23T11:55:50;26.15;;;12.77;;
71462;SDS011;59266;52.608;13.260;2023-02-23T11:58:25;26.30;;;12.35;;
71462;SDS011;59266;52.608;13.260;2023-02-23T12:01:08;26.05;;;11.98;;
71462;SDS011;59266;52.608;13.260;2023-02-23T12:03:43;29.77;;;11.95;;
71462;SDS011;59266;52.608;13.260;2023-02-23T12:06:33;26.00;;;12.20;;
71462;SDS011;59266;52.608;13.260;2023-02-23T12:12:03;27.42;;;12.13;;
71462;SDS011;59266;52.608;13.260;2023-02-23T12:14:34;26.27;;;12.20;;
71462;SDS011;59266;52.608;13.260;2023-02-23T12:17:10;24.85;;;12.88;;
71462;SDS011;59266;52.608;13.260;2023-02-23T12:19:45;26.48;;;13.07;;
71462;SDS011;59266;52.608;13.260;2023-02-23T12:22:17;26.02;;;12.23;;
71462;SDS011;59266;52.608;13.260;2023-02-23T12:24:49;33.47;;;13.43;;
71462;SDS011;59266;52.608;13.260;2023-02-23T12:27:40;29.65;;;13.05;;
71462;SDS011;59266;52.608;13.260;2023-02-23T12:30:30;27.75;;;12.85;;
71462;SDS011;59266;52.608;13.260;2023-02-23T12:33:32;29.77;;;12.60;;
71462;SDS011;59266;52.608;13.260;2023-02-23T12:36:05;24.25;;;12.32;;
71462;SDS011;59266;52.608;13.260;2023-02-23T12:41:25;26.95;;;12.43;;
71462;SDS011;59266;52.608;13.260;2023-02-23T12:44:03;26.58;;;12.85;;
71462;SDS011;59266;52.608;13.260;2023-02-23T12:46:50;31.60;;;13.82;;
71462;SDS011;59266;52.608;13.260;2023-02-23T12:49:44;28.08;;;13.32;;
71462;SDS011;59266;52.608;13.260;2023-02-23T12:52:18;28.27;;;12.88;;
71462;SDS011;59266;52.608;13.260;2023-02-23T12:54:50;26.88;;;13.38;;
71462;SDS011;59266;52.608;13.260;2023-02-23T13:00:29;29.10;;;13.23;;
71462;SDS011;59266;52.608;13.260;2023-02-23T13:09:05;26.20;;;13.43;;
71462;SDS011;59266;52.608;13.260;2023-02-23T13:12:06;25.75;;;13.00;;
71462;SDS011;59266;52.608;13.260;2023-02-23T13:14:57;27.40;;;13.25;;
71462;SDS011;59266;52.608;13.260;2023-02-23T13:20:25;30.48;;;13.27;;
71462;SDS011;59266;52.608;13.260;2023-02-23T13:23:14;31.23;;;13.45;;
71462;SDS011;59266;52.608;13.260;2023-02-23T13:31:26;30.25;;;13.15;;
71462;SDS011;59266;52.608;13.260;2023-02-23T13:34:06;29.63;;;14.38;;
71462;SDS011;59266;52.608;13.260;2023-02-23T13:36:44;27.58;;;13.65;;
71462;SDS011;59266;52.608;13.260;2023-02-23T13:45:15;29.92;;;14.63;;
71462;SDS011;59266;52.608;13.260;2023-02-23T13:48:13;28.67;;;13.00;;
71462;SDS011;59266;52.608;13.260;2023-02-23T13:53:57;32.10;;;14.25;;
71462;SDS011;59266;52.608;13.260;2023-02-23T13:56:30;28.80;;;13.85;;
71462;SDS011;59266;52.608;13.260;2023-02-23T13:59:02;33.28;;;14.27;;
71462;SDS011;59266;52.608;13.260;2023-02-23T14:01:34;36.85;;;14.90;;
71462;SDS011;59266;52.608;13.260;2023-02-23T14:06:38;34.17;;;14.07;;
71462;SDS011;59266;52.608;13.260;2023-02-23T14:09:07;29.45;;;13.82;;
71462;SDS011;59266;52.608;13.260;2023-02-23T14:11:41;29.50;;;13.63;;
71462;SDS011;59266;52.608;13.260;2023-02-23T14:14:12;29.83;;;14.30;;
71462;SDS011;59266;52.608;13.260;2023-02-23T14:22:22;28.67;;;13.75;;
71462;SDS011;59266;52.608;13.260;2023-02-23T14:27:56;33.08;;;14.23;;
71462;SDS011;59266;52.608;13.260;2023-02-23T14:30:29;35.00;;;15.75;;
71462;SDS011;59266;52.608;13.260;2023-02-23T14:33:32;31.73;;;15.38;;
71462;SDS011;59266;52.608;13.260;2023-02-23T14:41:23;37.88;;;16.50;;
71462;SDS011;59266;52.608;13.260;2023-02-23T14:43:53;36.67;;;17.08;;
71462;SDS011;59266;52.608;13.260;2023-02-23T14:46:28;36.03;;;16.20;;
71462;SDS011;59266;52.608;13.260;2023-02-23T14:49:00;38.67;;;16.33;;
71462;SDS011;59266;52.608;13.260;2023-02-23T14:54:11;37.10;;;16.30;;
71462;SDS011;59266;52.608;13.260;2023-02-23T14:56:59;38.25;;;16.92;;
71462;SDS011;59266;52.608;13.260;2023-02-23T14:59:28;35.80;;;17.02;;
71462;SDS011;59266;52.608;13.260;2023-02-23T15:04:51;43.83;;;16.80;;
71462;SDS011;59266;52.608;13.260;2023-02-23T15:09:57;35.90;;;16.20;;
71462;SDS011;59266;52.608;13.260;2023-02-23T15:12:26;44.35;;;17.55;;
71462;SDS011;59266;52.608;13.260;2023-02-23T15:15:00;37.70;;;17.27;;
71462;SDS011;59266;52.608;13.260;2023-02-23T15:17:28;38.92;;;17.00;;
71462;SDS011;59266;52.608;13.260;2023-02-23T15:19:58;38.55;;;17.13;;
71462;SDS011;59266;52.608;13.260;2023-02-23T15:22:41;39.70;;;17.63;;
71462;SDS011;59266;52.608;13.260;2023-02-23T15:25:16;43.83;;;16.30;;
71462;SDS011;59266;52.608;13.260;2023-02-23T15:27:46;34.28;;;15.60;;
71462;SDS011;59266;52.608;13.260;2023-02-23T15:30:27;39.13;;;17.23;;
71462;SDS011;59266;52.608;13.260;2023-02-23T15:33:04;43.15;;;17.48;;
71462;SDS011;59266;52.608;13.260;2023-02-23T15:38:22;40.83;;;17.55;;
71462;SDS011;59266;52.608;13.260;2023-02-23T15:41:32;40.95;;;17.27;;
71462;SDS011;59266;52.608;13.260;2023-02-23T15:46:41;44.15;;;17.38;;
71462;SDS011;59266;52.608;13.260;2023-02-23T15:51:43;41.38;;;17.05;;
71462;SDS011;59266;52.608;13.260;2023-02-23T15:54:22;42.83;;;18.08;;
71462;SDS011;59266;52.608;13.260;2023-02-23T15:56:57;42.38;;;19.10;;
71462;SDS011;59266;52.608;13.260;2023-02-23T15:59:29;39.55;;;18.70;;
71462;SDS011;59266;52.608;13.260;2023-02-23T16:02:01;46.38;;;20.08;;
71462;SDS011;59266;52.608;13.260;2023-02-23T16:04:38;49.25;;;19.95;;
71462;SDS011;59266;52.608;13.260;2023-02-23T16:07:17;45.60;;;18.90;;
71462;SDS011;59266;52.608;13.260;2023-02-23T16:09:50;43.63;;;18.73;;
71462;SDS011;59266;52.608;13.260;2023-02-23T16:12:30;47.13;;;19.85;;
71462;SDS011;59266;52.608;13.260;2023-02-23T16:15:02;49.85;;;20.27;;
71462;SDS011;59266;52.608;13.260;2023-02-23T16:22:54;54.30;;;21.17;;
71462;SDS011;59266;52.608;13.260;2023-02-23T16:25:24;51.15;;;20.63;;
71462;SDS011;59266;52.608;13.260;2023-02-23T16:28:02;51.70;;;21.38;;
71462;SDS011;59266;52.608;13.260;2023-02-23T16:30:50;54.55;;;21.63;;
71462;SDS011;59266;52.608;13.260;2023-02-23T16:34:16;57.00;;;22.35;;
71462;SDS011;59266;52.608;13.260;2023-02-23T16:36:22;60.80;;;23.30;;
71462;SDS011;59266;52.608;13.260;2023-02-23T16:38:57;55.85;;;22.15;;
71462;SDS011;59266;52.608;13.260;2023-02-23T16:41:28;59.35;;;22.52;;
71462;SDS011;59266;52.608;13.260;2023-02-23T16:43:58;59.45;;;22.65;;
71462;SDS011;59266;52.608;13.260;2023-02-23T16:46:29;59.42;;;22.90;;
71462;SDS011;59266;52.608;13.260;2023-02-23T16:48:58;63.08;;;25.08;;
71462;SDS011;59266;52.608;13.260;2023-02-23T16:51:31;57.17;;;23.05;;
71462;SDS011;59266;52.608;13.260;2023-02-23T16:53:59;62.97;;;23.77;;
71462;SDS011;59266;52.608;13.260;2023-02-23T16:56:29;72.05;;;25.52;;
71462;SDS011;59266;52.608;13.260;2023-02-23T16:59:00;70.72;;;24.50;;
71462;SDS011;59266;52.608;13.260;2023-02-23T17:01:29;68.55;;;25.48;;
71462;SDS011;59266;52.608;13.260;2023-02-23T17:04:13;65.05;;;27.63;;